KMLJ/MLJ METAR and TAF weather

Enter ICAO airport designator
Station Type Date Time Source
KMLJ METAR 2022/12/10 01:15 UTC NOAA

KMLJ 100115Z 07006KT 10SM BKN007 OVC010 15/14 A3013 RMK AO2 RWY 10/28 CLOSED TO ALL FIXED WINGS


Station Type Date Time Source
KMLJ Decoded METAR 2022/12/10 01:15 UTC NOAA

Milledgeville, Baldwin County Airport, GA, United States (KMLJ) 33-09-15N 083-14-26W
Dec 09, 2022 - 08:15 PM EST / 2022.12.10 0115 UTC
Wind: from the ENE (070 degrees) at 7 MPH (6 KT):0
Visibility: 10 mile(s):0
Sky conditions: overcast
Temperature: 59 F (15 C)
Dew Point: 57 F (14 C)
Relative Humidity: 93%
Pressure (altimeter): 30.13 in. Hg (1020 hPa)
ob: KMLJ 100115Z 07006KT 10SM BKN007 OVC010 15/14 A3013 RMK AO2 RWY 10/28 CLOSED TO ALL FIXED WINGS
cycle: 1

Station Type Date Time Source
KMLJ TAF UTC NOAA

Error!

Example: see airport list